createdAt,value
2023-01-18T00:02:27.427Z,2.15
2023-01-18T00:05:29.069Z,2.33
2023-01-18T00:08:31.884Z,2.37
2023-01-18T00:11:33.318Z,2.34
2023-01-18T00:14:34.737Z,2.44
2023-01-18T00:17:47.450Z,2.56
2023-01-18T00:20:48.875Z,2.62
2023-01-18T00:23:50.725Z,2.58
2023-01-18T00:26:52.153Z,2.59
2023-01-18T00:29:53.597Z,2.65
2023-01-18T00:32:59.143Z,2.66
2023-01-18T00:36:03.001Z,2.70
2023-01-18T00:39:04.505Z,2.72
2023-01-18T00:42:24.231Z,2.72
2023-01-18T00:45:25.953Z,2.77
2023-01-18T00:48:27.391Z,2.79
2023-01-18T00:51:28.777Z,2.82
2023-01-18T00:54:30.158Z,2.82
2023-01-18T00:57:31.605Z,2.81
2023-01-18T01:00:33.409Z,2.82
2023-01-18T01:03:54.921Z,2.87
2023-01-18T01:06:56.442Z,2.81
2023-01-18T01:09:58.109Z,2.81
2023-01-18T01:13:17.901Z,2.83
2023-01-18T01:16:38.390Z,2.83
2023-01-18T01:19:58.395Z,2.74
2023-01-18T01:23:34.097Z,2.80
2023-01-18T01:26:35.661Z,2.72
2023-01-18T01:29:37.998Z,2.69
2023-01-18T01:32:39.405Z,2.73
2023-01-18T01:35:40.776Z,2.73
2023-01-18T01:38:42.241Z,2.66
2023-01-18T01:41:43.713Z,2.75
2023-01-18T01:44:52.056Z,2.85
2023-01-18T01:47:54.485Z,2.89
2023-01-18T01:50:55.977Z,2.90
2023-01-18T01:54:01.614Z,2.86
2023-01-18T01:57:12.594Z,2.77
2023-01-18T02:00:24.204Z,2.74
2023-01-18T02:03:25.763Z,2.67
2023-01-18T02:06:34.251Z,2.62
2023-01-18T02:09:35.687Z,2.62
2023-01-18T02:12:40.581Z,2.61
2023-01-18T02:16:03.050Z,2.69
2023-01-18T02:19:22.359Z,2.69
2023-01-18T02:23:09.517Z,2.70
2023-01-18T02:26:41.561Z,2.79
2023-01-18T02:30:24.951Z,2.81
2023-01-18T02:33:42.842Z,2.86
2023-01-18T02:37:16.611Z,2.93
2023-01-18T02:40:32.136Z,2.96
2023-01-18T02:43:53.648Z,2.98
2023-01-18T02:46:55.255Z,2.97
2023-01-18T02:49:57.667Z,2.89
2023-01-18T02:52:59.380Z,2.83
2023-01-18T02:56:03.547Z,2.74
2023-01-18T02:59:35.135Z,2.72
2023-01-18T03:02:39.408Z,2.79
2023-01-18T03:05:42.987Z,2.82
2023-01-18T03:08:50.351Z,2.71
2023-01-18T03:12:02.138Z,2.56
2023-01-18T03:15:18.754Z,2.29
2023-01-18T03:18:35.494Z,2.34
2023-01-18T03:21:43.262Z,2.27
2023-01-18T03:24:45.884Z,2.25
2023-01-18T03:28:09.711Z,2.19
2023-01-18T03:31:35.541Z,2.09
2023-01-18T03:35:08.831Z,1.90
2023-01-18T03:38:10.617Z,2.01
2023-01-18T03:41:15.518Z,1.84
2023-01-18T03:44:25.571Z,1.72
2023-01-18T03:47:27.130Z,1.59
2023-01-18T03:50:39.100Z,1.60
2023-01-18T03:53:54.343Z,1.56
2023-01-18T03:57:15.253Z,1.68
2023-01-18T04:00:18.058Z,1.74
2023-01-18T04:03:19.422Z,1.84
2023-01-18T04:06:22.821Z,1.94
2023-01-18T04:09:25.377Z,1.86
2023-01-18T04:12:27.344Z,1.66
2023-01-18T04:15:28.754Z,1.63
2023-01-18T04:18:30.121Z,1.60
2023-01-18T04:21:31.505Z,1.67
2023-01-18T04:24:32.922Z,1.67
2023-01-18T04:27:34.437Z,1.65
2023-01-18T04:30:35.831Z,1.57
2023-01-18T04:33:37.279Z,1.64
2023-01-18T04:36:38.776Z,1.57
2023-01-18T04:39:40.176Z,1.63
2023-01-18T04:42:41.595Z,1.69
2023-01-18T04:45:43.087Z,1.76
2023-01-18T04:48:44.548Z,1.85
2023-01-18T04:51:46.834Z,1.82
2023-01-18T04:54:48.226Z,1.91
2023-01-18T04:57:56.504Z,1.93
2023-01-18T05:01:01.682Z,1.97
2023-01-18T05:04:03.491Z,1.97
2023-01-18T05:07:04.941Z,2.01
2023-01-18T05:10:06.664Z,2.18
2023-01-18T05:13:08.150Z,2.15
2023-01-18T05:16:15.042Z,2.10
2023-01-18T05:19:16.415Z,2.12
2023-01-18T05:22:17.807Z,2.13
2023-01-18T05:25:19.218Z,1.91
2023-01-18T05:28:22.073Z,1.74
2023-01-18T05:31:23.845Z,1.57
2023-01-18T05:34:27.134Z,1.50
2023-01-18T05:37:28.507Z,1.54
2023-01-18T05:40:29.936Z,1.85
2023-01-18T05:43:31.774Z,1.97
2023-01-18T05:46:33.167Z,1.68
2023-01-18T05:49:34.547Z,1.42
2023-01-18T05:52:35.949Z,1.21
2023-01-18T05:55:37.491Z,1.11
2023-01-18T05:58:38.937Z,1.08
2023-01-18T06:01:40.459Z,1.17
2023-01-18T06:04:44.192Z,1.03
2023-01-18T06:07:45.623Z,0.96
2023-01-18T06:10:57.850Z,0.91
2023-01-18T06:13:59.525Z,0.85
2023-01-18T06:17:01.624Z,0.89
2023-01-18T06:20:04.718Z,0.93
2023-01-18T06:23:06.109Z,0.95
2023-01-18T06:26:07.702Z,0.93
2023-01-18T06:29:09.188Z,0.88
2023-01-18T06:32:10.597Z,0.91
2023-01-18T06:35:11.982Z,1.00
2023-01-18T06:38:13.978Z,1.04
2023-01-18T06:41:15.897Z,1.08
2023-01-18T06:44:17.390Z,1.11
2023-01-18T06:47:19.885Z,1.11
2023-01-18T06:50:22.448Z,1.09
2023-01-18T06:53:24.422Z,1.15
2023-01-18T06:56:26.765Z,1.06
2023-01-18T06:59:28.464Z,1.06
2023-01-18T07:02:29.845Z,1.03
2023-01-18T07:05:31.257Z,1.00
2023-01-18T07:08:32.925Z,0.98
2023-01-18T07:11:35.728Z,0.98
2023-01-18T07:14:37.285Z,1.04
2023-01-18T07:17:38.679Z,1.01
2023-01-18T07:20:40.073Z,1.02
2023-01-18T07:23:42.298Z,1.02
2023-01-18T07:26:44.086Z,1.04
2023-01-18T07:29:45.489Z,1.06
2023-01-18T07:32:50.919Z,1.08
2023-01-18T07:35:53.879Z,1.13
2023-01-18T07:38:55.579Z,1.06
2023-01-18T07:41:57.052Z,1.05
2023-01-18T07:44:58.439Z,1.08
2023-01-18T07:48:00.620Z,1.17
2023-01-18T07:51:04.627Z,1.23
2023-01-18T07:54:07.162Z,1.19
2023-01-18T07:57:08.639Z,1.20
2023-01-18T08:00:12.046Z,1.22
2023-01-18T08:03:16.855Z,1.35
2023-01-18T08:06:24.906Z,1.43
2023-01-18T08:09:26.523Z,1.47
2023-01-18T08:12:28.039Z,1.60
2023-01-18T08:15:31.288Z,1.65
2023-01-18T08:18:33.329Z,1.67
2023-01-18T08:21:34.757Z,1.73
2023-01-18T08:24:36.739Z,1.89
2023-01-18T08:27:38.790Z,1.96
2023-01-18T08:30:46.089Z,1.99
2023-01-18T08:33:48.730Z,1.90
2023-01-18T08:36:51.035Z,1.97
2023-01-18T08:39:52.447Z,1.86
2023-01-18T08:42:59.626Z,1.81
2023-01-18T08:46:01.334Z,1.74
2023-01-18T08:49:05.669Z,1.70
2023-01-18T08:52:07.398Z,1.75
2023-01-18T08:55:09.228Z,1.87
2023-01-18T08:58:11.913Z,2.15
2023-01-18T09:01:13.675Z,2.47
2023-01-18T09:04:15.103Z,2.49
2023-01-18T09:07:23.030Z,2.37
2023-01-18T09:10:24.602Z,2.37
2023-01-18T09:13:26.125Z,2.26
2023-01-18T09:16:28.298Z,2.11
2023-01-18T09:19:30.068Z,2.11
2023-01-18T09:22:31.456Z,2.04
2023-01-18T09:25:33.198Z,2.12
2023-01-18T09:28:35.493Z,2.25
2023-01-18T09:31:37.181Z,2.34
2023-01-18T09:34:38.971Z,2.34
2023-01-18T09:37:40.429Z,2.23
2023-01-18T09:40:44.615Z,2.17
2023-01-18T09:43:52.206Z,2.13
2023-01-18T09:46:58.557Z,2.02
2023-01-18T09:50:06.613Z,2.04
2023-01-18T09:53:41.376Z,2.16
2023-01-18T09:56:51.926Z,2.22
2023-01-18T09:59:59.374Z,2.41
2023-01-18T10:03:08.842Z,2.42
2023-01-18T10:06:18.486Z,2.47
2023-01-18T10:09:27.165Z,2.54
2023-01-18T10:12:40.922Z,2.58
2023-01-18T10:15:42.524Z,2.55
2023-01-18T10:18:48.801Z,2.70
2023-01-18T10:21:57.811Z,2.65
2023-01-18T10:25:14.819Z,2.70
2023-01-18T10:28:50.381Z,2.90
2023-01-18T10:32:00.471Z,3.02
2023-01-18T10:35:14.199Z,2.94
2023-01-18T10:38:20.864Z,2.94
2023-01-18T10:41:28.958Z,3.01
2023-01-18T10:44:31.529Z,3.28
2023-01-18T10:47:33.906Z,3.32
2023-01-18T10:50:43.909Z,3.39
2023-01-18T10:53:45.314Z,3.47
2023-01-18T10:56:46.712Z,3.36
2023-01-18T10:59:51.416Z,3.25
2023-01-18T11:02:55.540Z,3.10
2023-01-18T11:06:06.898Z,3.11
2023-01-18T11:09:34.208Z,3.00
2023-01-18T11:12:47.723Z,2.92
2023-01-18T11:16:02.428Z,2.86
2023-01-18T11:19:15.872Z,2.96
2023-01-18T11:22:17.441Z,2.97
2023-01-18T11:25:18.976Z,3.36
2023-01-18T11:28:22.659Z,3.58
2023-01-18T11:31:26.266Z,3.48
2023-01-18T11:34:31.423Z,3.56
2023-01-18T11:37:38.267Z,3.51
2023-01-18T11:40:39.665Z,3.56
2023-01-18T11:43:53.122Z,3.77
2023-01-18T11:46:57.883Z,3.65
2023-01-18T11:50:21.378Z,3.75
2023-01-18T11:53:26.593Z,3.79
2023-01-18T11:56:45.136Z,3.89
2023-01-18T11:59:48.658Z,4.03
2023-01-18T12:02:57.809Z,3.93
2023-01-18T12:06:26.933Z,4.09
2023-01-18T12:09:52.431Z,4.16
2023-01-18T12:13:27.823Z,4.09
2023-01-18T12:17:01.533Z,4.29
2023-01-18T12:20:31.204Z,4.06
2023-01-18T12:23:56.960Z,4.06
2023-01-18T12:27:04.031Z,4.20
2023-01-18T12:30:32.823Z,4.14
2023-01-18T12:33:44.195Z,3.98
2023-01-18T12:37:02.634Z,4.06
2023-01-18T12:40:34.516Z,4.14
2023-01-18T12:44:05.404Z,4.39
2023-01-18T12:47:35.006Z,4.22
2023-01-18T12:50:39.263Z,4.13
2023-01-18T12:54:13.299Z,4.25
2023-01-18T12:57:16.946Z,4.47
2023-01-18T13:00:28.256Z,4.59
2023-01-18T13:03:35.313Z,4.54
2023-01-18T13:06:39.496Z,4.55
2023-01-18T13:09:46.437Z,4.84
2023-01-18T13:12:50.813Z,4.68
2023-01-18T13:16:13.582Z,4.87
2023-01-18T13:19:24.800Z,5.15
2023-01-18T13:22:35.633Z,5.02
2023-01-18T13:25:51.248Z,4.69
2023-01-18T13:29:16.750Z,4.84
2023-01-18T13:32:24.647Z,4.89
2023-01-18T13:35:33.446Z,4.60
2023-01-18T13:38:41.512Z,4.65
2023-01-18T13:42:02.248Z,4.85
2023-01-18T13:45:17.156Z,4.89
2023-01-18T13:49:01.576Z,4.80
2023-01-18T13:52:32.560Z,4.80
2023-01-18T13:55:33.961Z,4.83
2023-01-18T13:58:40.164Z,5.08
2023-01-18T14:01:44.049Z,5.07
2023-01-18T14:04:46.116Z,4.84
2023-01-18T14:07:51.788Z,4.87
2023-01-18T14:11:04.317Z,5.04
2023-01-18T14:14:11.770Z,5.15
2023-01-18T14:17:16.389Z,5.28
2023-01-18T14:20:37.968Z,5.05
2023-01-18T14:24:09.493Z,4.77
2023-01-18T14:27:21.866Z,4.78
2023-01-18T14:30:29.539Z,5.15
2023-01-18T14:33:38.037Z,5.04
2023-01-18T14:36:39.431Z,4.97
2023-01-18T14:39:41.039Z,4.74
2023-01-18T14:42:55.787Z,4.82
2023-01-18T14:46:01.333Z,4.68
2023-01-18T14:49:02.801Z,4.39
2023-01-18T14:52:07.739Z,4.37
2023-01-18T14:55:27.064Z,4.39
2023-01-18T14:58:28.808Z,4.56
2023-01-18T15:01:39.105Z,4.34
2023-01-18T15:04:45.343Z,4.24
2023-01-18T15:07:55.761Z,4.09
2023-01-18T15:10:58.198Z,4.08
2023-01-18T15:14:00.082Z,4.04
2023-01-18T15:17:06.112Z,3.98
2023-01-18T15:20:14.470Z,4.04
2023-01-18T15:23:16.191Z,3.99
2023-01-18T15:26:17.573Z,3.98
2023-01-18T15:29:26.431Z,4.01
2023-01-18T15:32:37.397Z,3.97
2023-01-18T15:35:38.877Z,3.98
2023-01-18T15:38:40.307Z,4.07
2023-01-18T15:41:43.601Z,4.11
2023-01-18T15:44:51.512Z,4.04
2023-01-18T15:48:08.049Z,4.02
2023-01-18T15:51:10.883Z,3.95
2023-01-18T15:54:22.865Z,3.93
2023-01-18T15:57:24.356Z,3.90
2023-01-18T16:00:30.689Z,3.87
2023-01-18T16:03:41.166Z,3.85
2023-01-18T16:06:45.385Z,3.83
2023-01-18T16:09:46.832Z,3.73
2023-01-18T16:12:48.380Z,3.65
2023-01-18T16:16:04.959Z,3.62
2023-01-18T16:19:34.769Z,3.55
2023-01-18T16:22:37.111Z,3.45
2023-01-18T16:25:39.107Z,3.35
2023-01-18T16:28:40.875Z,3.30
2023-01-18T16:31:43.953Z,3.16
2023-01-18T16:34:45.561Z,3.06
2023-01-18T16:37:47.995Z,2.88
2023-01-18T16:40:50.849Z,2.77
2023-01-18T16:43:52.243Z,2.74
2023-01-18T16:46:53.862Z,2.69
2023-01-18T16:49:55.297Z,2.91
2023-01-18T16:52:56.711Z,2.95
2023-01-18T16:55:58.093Z,3.03
2023-01-18T16:59:00.682Z,2.87
2023-01-18T17:02:02.273Z,2.67
2023-01-18T17:05:04.022Z,2.50
2023-01-18T17:08:05.399Z,2.29
2023-01-18T17:11:06.955Z,2.23
2023-01-18T17:14:08.622Z,2.23
2023-01-18T17:17:10.851Z,2.25
2023-01-18T17:20:17.994Z,2.23
2023-01-18T17:23:19.429Z,2.15
2023-01-18T17:26:20.892Z,2.16
2023-01-18T17:29:22.521Z,2.12
2023-01-18T17:32:24.021Z,2.10
2023-01-18T17:35:27.692Z,2.12
2023-01-18T17:41:33.660Z,1.65
2023-01-18T17:44:37.413Z,1.47
2023-01-18T17:47:39.208Z,1.48
2023-01-18T17:50:41.582Z,1.51
2023-01-18T17:53:43.425Z,1.59
2023-01-18T17:56:45.214Z,1.56
2023-01-18T17:59:46.639Z,1.58
2023-01-18T18:02:50.938Z,1.62
2023-01-18T18:05:57.603Z,1.49
2023-01-18T18:09:00.485Z,1.39
2023-01-18T18:12:01.964Z,1.31
2023-01-18T18:15:05.024Z,1.31
2023-01-18T18:18:12.300Z,1.40
2023-01-18T18:21:26.154Z,1.40
2023-01-18T18:24:27.559Z,1.35
2023-01-18T18:27:44.455Z,1.21
2023-01-18T18:30:51.293Z,1.25
2023-01-18T18:33:52.791Z,1.30
2023-01-18T18:36:54.271Z,1.27
2023-01-18T18:39:55.897Z,1.25
2023-01-18T18:43:02.363Z,1.30
2023-01-18T18:46:04.293Z,1.35
2023-01-18T18:49:06.833Z,1.24
2023-01-18T18:52:08.259Z,1.14
2023-01-18T18:55:11.184Z,0.95
2023-01-18T18:58:12.752Z,1.01
2023-01-18T19:01:22.559Z,1.06
2023-01-18T19:04:24.805Z,0.94
2023-01-18T19:07:26.796Z,0.83
2023-01-18T19:10:30.216Z,0.84
2023-01-18T19:13:31.637Z,0.89
2023-01-18T19:16:33.181Z,0.88
2023-01-18T19:19:34.703Z,0.75
2023-01-18T19:22:37.911Z,0.74
2023-01-18T19:25:40.485Z,0.81
2023-01-18T19:28:42.085Z,0.86
2023-01-18T19:31:43.614Z,0.89
2023-01-18T19:34:45.007Z,0.92
2023-01-18T19:37:47.361Z,0.88
2023-01-18T19:40:48.881Z,0.85
2023-01-18T19:43:50.561Z,0.76
2023-01-18T19:46:53.888Z,0.76
2023-01-18T19:49:57.187Z,0.80
2023-01-18T19:52:59.603Z,0.81
2023-01-18T19:56:07.173Z,0.81
2023-01-18T19:59:11.211Z,0.83
2023-01-18T20:02:12.822Z,0.92
2023-01-18T20:05:14.347Z,0.91
2023-01-18T20:08:15.812Z,0.88
2023-01-18T20:11:17.340Z,0.88
2023-01-18T20:14:19.548Z,0.86
2023-01-18T20:17:20.979Z,0.82
2023-01-18T20:20:31.850Z,0.87
2023-01-18T20:23:34.061Z,0.86
2023-01-18T20:26:37.721Z,0.83
2023-01-18T20:29:39.660Z,0.81
2023-01-18T20:32:41.119Z,0.82
2023-01-18T20:35:42.921Z,0.73
2023-01-18T20:38:44.440Z,0.74
2023-01-18T20:41:48.610Z,0.75
2023-01-18T20:44:53.471Z,0.79
2023-01-18T20:47:54.977Z,0.80
2023-01-18T20:51:00.564Z,0.72
2023-01-18T20:54:02.287Z,0.71
2023-01-18T20:57:06.947Z,0.65
2023-01-18T21:00:09.177Z,0.72
2023-01-18T21:03:13.831Z,0.69
2023-01-18T21:06:16.012Z,0.68
2023-01-18T21:09:17.514Z,0.64
2023-01-18T21:12:18.989Z,0.65
2023-01-18T21:15:20.420Z,0.65
2023-01-18T21:18:21.916Z,0.61
2023-01-18T21:21:23.857Z,0.59
2023-01-18T21:24:25.311Z,0.55
2023-01-18T21:27:27.176Z,0.56
2023-01-18T21:30:28.711Z,0.58
2023-01-18T21:33:30.189Z,0.58
2023-01-18T21:36:31.743Z,0.57
2023-01-18T21:39:33.236Z,0.51
2023-01-18T21:42:53.327Z,0.50
2023-01-18T21:45:58.648Z,0.51
2023-01-18T21:49:05.140Z,0.51
2023-01-18T21:52:26.419Z,0.48
2023-01-18T21:55:27.978Z,0.51
2023-01-18T21:58:48.212Z,0.51
2023-01-18T22:01:49.758Z,0.40
2023-01-18T22:05:00.327Z,0.31
2023-01-18T22:08:02.110Z,0.34
2023-01-18T22:11:03.788Z,0.34
2023-01-18T22:14:06.188Z,0.35
2023-01-18T22:17:08.431Z,0.23
2023-01-18T22:20:11.218Z,0.16
2023-01-18T22:23:12.597Z,0.07
2023-01-18T22:26:14.224Z,0.09
2023-01-18T22:29:15.693Z,0.00
2023-01-18T22:32:17.200Z,0.06
2023-01-18T22:35:18.770Z,0.08
2023-01-18T22:38:20.168Z,0.12
2023-01-18T22:41:24.981Z,0.11
2023-01-18T22:44:26.457Z,0.10
2023-01-18T22:47:27.919Z,0.16
2023-01-18T22:50:29.359Z,0.10
2023-01-18T22:53:31.901Z,0.13
2023-01-18T22:56:35.114Z,0.19
2023-01-18T22:59:36.527Z,0.20
2023-01-18T23:02:38.229Z,0.20
2023-01-18T23:05:39.663Z,0.26
2023-01-18T23:08:44.050Z,0.28
2023-01-18T23:11:47.455Z,0.32
2023-01-18T23:15:07.491Z,0.26
2023-01-18T23:18:08.887Z,0.25
2023-01-18T23:21:10.296Z,0.21
2023-01-18T23:24:12.002Z,0.22
2023-01-18T23:27:13.400Z,0.21
2023-01-18T23:30:15.185Z,0.22
2023-01-18T23:33:16.575Z,0.24
2023-01-18T23:36:18.108Z,0.24
2023-01-18T23:39:38.193Z,0.23
2023-01-18T23:42:58.238Z,0.14
2023-01-18T23:46:17.894Z,0.00
2023-01-18T23:49:37.994Z,-0.07
2023-01-18T23:52:57.747Z,-0.06
2023-01-18T23:55:59.527Z,-0.05
2023-01-18T23:59:01.038Z,-0.04
